Time;durP1;ratioP1;P1;durP2;ratioP2;P2;SDS_P1;SDS_P2;PMS_P1;PMS_P2;Temp;Humidity;BMP_temperature;BMP_pressure;BME280_temperature;BME280_humidity;BME280_pressure;Samples;Min_cycle;Max_cycle;Signal;HPM_P1;HPM_P2
2022/09/01 00:01:57;;;;;;;25.40;17.03;;;;;;;;;;5019615;28;20505;-53
2022/09/01 00:04:25;;;;;;;23.97;17.00;;;;;;;;;;5005636;28;20259;-53
2022/09/01 00:06:53;;;;;;;24.13;16.57;;;;;;;;;;5014421;28;20436;-53
2022/09/01 00:09:19;;;;;;;36.50;19.23;;;;;;;;;;4999647;28;20440;-52
2022/09/01 00:11:47;;;;;;;27.60;16.47;;;;;;;;;;5013267;28;20424;-52
2022/09/01 00:14:13;;;;;;;22.63;16.83;;;;;;;;;;5005874;28;20424;-54
2022/09/01 00:16:38;;;;;;;21.13;16.53;;;;;;;;;;5010016;28;21008;-53
2022/09/01 00:19:04;;;;;;;17.73;15.17;;;;;;;;;;4964125;28;20938;-53
2022/09/01 00:21:31;;;;;;;24.07;15.67;;;;;;;;;;5011790;28;20471;-54
2022/09/01 00:23:57;;;;;;;22.17;17.73;;;;;;;;;;5006332;28;20444;-53
2022/09/01 00:26:23;;;;;;;20.00;15.67;;;;;;;;;;5012337;28;20442;-52
2022/09/01 00:28:49;;;;;;;23.77;17.67;;;;;;;;;;5009717;28;20437;-52
2022/09/01 00:31:16;;;;;;;22.50;16.90;;;;;;;;;;5010788;28;20439;-53
2022/09/01 00:33:41;;;;;;;20.33;15.77;;;;;;;;;;5006124;28;20474;-53
2022/09/01 00:36:08;;;;;;;24.10;15.10;;;;;;;;;;5010776;28;20464;-52
2022/09/01 00:38:34;;;;;;;25.20;15.23;;;;;;;;;;5001144;28;20180;-53
2022/09/01 00:41:00;;;;;;;21.57;14.80;;;;;;;;;;5014264;28;20558;-52
2022/09/01 00:43:38;;;;;;;17.47;15.77;;;;;;;;;;4998253;28;20428;-53
2022/09/01 00:46:08;;;;;;;17.03;15.10;;;;;;;;;;5008292;28;20432;-52
2022/09/01 00:48:35;;;;;;;18.03;16.07;;;;;;;;;;5002733;28;20456;-52
2022/09/01 00:51:00;;;;;;;17.23;13.60;;;;;;;;;;5014147;28;20464;-53
2022/09/01 00:53:26;;;;;;;19.20;15.17;;;;;;;;;;4968462;28;22078;-53
2022/09/01 00:55:52;;;;;;;18.03;15.60;;;;;;;;;;5009470;28;20494;-53
2022/09/01 00:58:18;;;;;;;18.50;15.30;;;;;;;;;;4992294;28;20458;-54
2022/09/01 01:00:44;;;;;;;18.10;15.90;;;;;;;;;;5033900;28;20472;-52
2022/09/01 01:03:11;;;;;;;23.50;15.27;;;;;;;;;;5012003;28;20276;-53
2022/09/01 01:05:39;;;;;;;19.73;16.43;;;;;;;;;;5009812;28;20432;-53
2022/09/01 01:08:06;;;;;;;18.17;14.00;;;;;;;;;;5001074;28;21016;-53
2022/09/01 01:10:34;;;;;;;18.27;16.07;;;;;;;;;;5002164;28;20444;-53
2022/09/01 01:13:01;;;;;;;21.03;14.93;;;;;;;;;;5009073;28;20419;-52
2022/09/01 01:15:27;;;;;;;16.33;14.63;;;;;;;;;;5009533;28;20456;-53
2022/09/01 01:17:53;;;;;;;15.60;14.00;;;;;;;;;;4996198;28;20440;-53
2022/09/01 01:23:23;;;;;;;22.00;14.20;;;;;;;;;;5000254;28;20450;-53
2022/09/01 01:25:56;;;;;;;18.77;16.80;;;;;;;;;;5007907;28;20448;-53
2022/09/01 01:28:30;;;;;;;20.63;17.30;;;;;;;;;;4967704;28;21009;-53
2022/09/01 01:31:00;;;;;;;21.73;15.20;;;;;;;;;;5007921;28;20448;-53
2022/09/01 01:33:38;;;;;;;17.30;14.73;;;;;;;;;;5001252;28;21056;-52
2022/09/01 01:36:06;;;;;;;18.07;15.07;;;;;;;;;;5008938;28;20519;-53
2022/09/01 01:38:34;;;;;;;21.70;18.07;;;;;;;;;;5007046;28;21008;-53
2022/09/01 01:41:01;;;;;;;21.77;17.40;;;;;;;;;;5005604;28;20484;-53
2022/09/01 01:43:27;;;;;;;20.90;15.37;;;;;;;;;;5009685;28;20479;-53
2022/09/01 01:45:54;;;;;;;16.60;14.87;;;;;;;;;;5011317;28;20913;-52
2022/09/01 01:48:22;;;;;;;19.30;16.57;;;;;;;;;;4984179;28;20494;-52
2022/09/01 01:50:48;;;;;;;22.83;18.50;;;;;;;;;;5014437;28;20452;-53
2022/09/01 01:53:18;;;;;;;18.63;16.07;;;;;;;;;;5007242;28;20424;-53
2022/09/01 01:55:44;;;;;;;18.17;15.90;;;;;;;;;;4983467;28;20931;-53
2022/09/01 01:58:10;;;;;;;19.90;14.60;;;;;;;;;;5014056;28;20432;-53
2022/09/01 02:00:36;;;;;;;17.10;15.20;;;;;;;;;;4963939;28;20472;-53
2022/09/01 02:03:02;;;;;;;19.57;15.50;;;;;;;;;;5009420;28;20984;-53
2022/09/01 02:05:30;;;;;;;16.47;13.47;;;;;;;;;;5005275;28;20535;-52
2022/09/01 02:08:03;;;;;;;17.90;15.17;;;;;;;;;;5003564;28;20514;-54
2022/09/01 02:10:33;;;;;;;18.23;15.47;;;;;;;;;;5004971;28;20424;-53
2022/09/01 02:13:06;;;;;;;18.47;15.23;;;;;;;;;;5010437;28;20925;-53
2022/09/01 02:15:38;;;;;;;16.87;14.20;;;;;;;;;;4997121;28;20507;-53
2022/09/01 02:18:05;;;;;;;25.30;15.80;;;;;;;;;;5009059;28;20536;-52
2022/09/01 02:20:31;;;;;;;18.00;14.43;;;;;;;;;;4987780;28;21015;-54
2022/09/01 02:22:57;;;;;;;19.27;15.33;;;;;;;;;;5020366;28;20442;-52
2022/09/01 02:25:25;;;;;;;22.93;14.60;;;;;;;;;;5000042;28;20440;-52
2022/09/01 02:27:52;;;;;;;18.90;14.23;;;;;;;;;;5006640;28;20432;-53
2022/09/01 02:30:18;;;;;;;17.47;15.57;;;;;;;;;;4981222;28;20949;-52
2022/09/01 02:32:44;;;;;;;19.03;14.63;;;;;;;;;;5008606;28;20441;-52
2022/09/01 02:35:10;;;;;;;16.83;15.03;;;;;;;;;;5005491;28;20566;-53
2022/09/01 02:37:38;;;;;;;17.23;14.13;;;;;;;;;;5003960;28;20182;-52
2022/09/01 02:40:04;;;;;;;17.50;15.20;;;;;;;;;;5001399;28;20590;-53
2022/09/01 02:42:30;;;;;;;18.73;13.93;;;;;;;;;;5010325;28;20439;-53
2022/09/01 02:44:57;;;;;;;16.43;13.70;;;;;;;;;;5005173;28;20952;-52
2022/09/01 02:47:26;;;;;;;19.53;14.57;;;;;;;;;;5012757;28;20459;-53
2022/09/01 02:49:52;;;;;;;17.80;13.60;;;;;;;;;;4991127;28;20448;-53
2022/09/01 02:52:22;;;;;;;16.70;14.17;;;;;;;;;;5019552;28;20466;-54
2022/09/01 02:54:49;;;;;;;16.67;14.57;;;;;;;;;;4997554;28;20444;-53
2022/09/01 02:57:15;;;;;;;17.13;13.60;;;;;;;;;;5012360;28;20582;-54
2022/09/01 02:59:41;;;;;;;20.37;14.93;;;;;;;;;;4989675;28;20491;-53
2022/09/01 03:02:07;;;;;;;15.13;13.63;;;;;;;;;;5014290;28;21260;-53
2022/09/01 03:04:37;;;;;;;18.30;14.30;;;;;;;;;;4968897;28;21197;-52
2022/09/01 03:07:03;;;;;;;18.97;14.80;;;;;;;;;;5007691;28;20456;-52
2022/09/01 03:09:31;;;;;;;19.00;14.37;;;;;;;;;;5003379;28;20446;-52
2022/09/01 03:11:57;;;;;;;18.40;13.90;;;;;;;;;;5015430;28;20428;-53
2022/09/01 03:14:23;;;;;;;18.60;14.03;;;;;;;;;;5006390;28;20506;-52
2022/09/01 03:16:49;;;;;;;17.50;14.70;;;;;;;;;;5016221;28;20961;-53
2022/09/01 03:19:15;;;;;;;21.60;14.20;;;;;;;;;;5000299;28;21295;-52
2022/09/01 03:21:41;;;;;;;17.27;14.50;;;;;;;;;;5005787;28;20176;-53
2022/09/01 03:24:08;;;;;;;17.90;14.97;;;;;;;;;;5006127;28;20440;-53
2022/09/01 03:26:35;;;;;;;16.67;14.83;;;;;;;;;;5011202;28;20436;-53
2022/09/01 03:29:01;;;;;;;21.23;14.10;;;;;;;;;;5005854;28;21132;-53
2022/09/01 03:31:27;;;;;;;20.50;14.17;;;;;;;;;;5007857;28;20466;-53
2022/09/01 03:33:55;;;;;;;17.70;13.57;;;;;;;;;;5010128;28;20456;-53
2022/09/01 03:36:22;;;;;;;17.73;13.83;;;;;;;;;;4976521;28;20444;-52
2022/09/01 03:38:48;;;;;;;17.23;14.17;;;;;;;;;;5003443;28;20468;-53
2022/09/01 03:41:15;;;;;;;17.27;14.77;;;;;;;;;;4996036;28;20536;-52
2022/09/01 03:43:41;;;;;;;17.53;14.20;;;;;;;;;;5016829;28;20447;-52
2022/09/01 03:46:09;;;;;;;18.20;15.17;;;;;;;;;;5004877;28;20436;-52
2022/09/01 03:48:35;;;;;;;16.57;14.10;;;;;;;;;;5007930;28;20579;-53
2022/09/01 03:51:03;;;;;;;20.97;15.73;;;;;;;;;;4988443;28;20447;-52
2022/09/01 03:53:30;;;;;;;18.53;13.87;;;;;;;;;;5015549;28;20440;-55
2022/09/01 03:55:58;;;;;;;19.10;14.50;;;;;;;;;;5004303;28;20437;-53
2022/09/01 03:58:24;;;;;;;21.77;15.83;;;;;;;;;;5010143;28;20433;-52
2022/09/01 04:00:54;;;;;;;19.47;15.87;;;;;;;;;;5009718;28;20643;-53
2022/09/01 04:03:21;;;;;;;20.33;15.93;;;;;;;;;;5013233;28;20973;-53
2022/09/01 04:05:48;;;;;;;19.63;14.73;;;;;;;;;;5004990;28;20452;-54
2022/09/01 04:08:14;;;;;;;19.83;16.07;;;;;;;;;;5014820;28;20450;-53
2022/09/01 04:10:48;;;;;;;20.20;15.23;;;;;;;;;;4962063;28;20500;-52
2022/09/01 04:13:18;;;;;;;21.47;15.47;;;;;;;;;;5015716;28;20962;-53
2022/09/01 04:15:44;;;;;;;15.27;13.60;;;;;;;;;;5005526;28;20458;-52
2022/09/01 04:18:18;;;;;;;23.90;16.30;;;;;;;;;;5009543;28;20545;-52
2022/09/01 04:20:48;;;;;;;22.40;16.73;;;;;;;;;;5004467;28;20475;-52
2022/09/01 04:23:15;;;;;;;18.93;16.30;;;;;;;;;;5011377;28;20439;-53
2022/09/01 04:25:41;;;;;;;21.40;16.30;;;;;;;;;;5000212;28;20510;-54
2022/09/01 04:28:16;;;;;;;21.40;14.60;;;;;;;;;;5010654;28;20439;-53
2022/09/01 04:30:42;;;;;;;17.17;14.07;;;;;;;;;;4984159;28;20226;-54
2022/09/01 04:33:09;;;;;;;18.50;14.50;;;;;;;;;;5012789;28;20444;-53
2022/09/01 04:35:39;;;;;;;18.00;15.30;;;;;;;;;;5001682;28;20174;-54
2022/09/01 04:38:07;;;;;;;19.43;15.67;;;;;;;;;;5013048;28;20801;-53
2022/09/01 04:40:33;;;;;;;20.03;14.70;;;;;;;;;;5004282;28;20478;-54
2022/09/01 04:42:59;;;;;;;20.53;15.50;;;;;;;;;;5012766;28;20424;-53
2022/09/01 04:45:26;;;;;;;19.73;15.77;;;;;;;;;;4964143;28;21130;-55
2022/09/01 04:47:52;;;;;;;22.93;16.77;;;;;;;;;;5005490;28;20187;-55
2022/09/01 04:50:20;;;;;;;22.23;14.87;;;;;;;;;;4989018;28;20439;-55
2022/09/01 04:52:46;;;;;;;19.17;14.37;;;;;;;;;;5017354;28;20264;-56
2022/09/01 04:55:16;;;;;;;21.63;14.17;;;;;;;;;;5003510;28;20511;-55
2022/09/01 04:57:46;;;;;;;20.07;15.23;;;;;;;;;;5007468;28;20427;-55
2022/09/01 05:00:21;;;;;;;19.77;15.50;;;;;;;;;;5008760;28;20489;-55
2022/09/01 05:02:47;;;;;;;22.10;15.53;;;;;;;;;;4999032;28;20440;-52
2022/09/01 05:05:13;;;;;;;19.13;14.83;;;;;;;;;;5004215;28;20440;-54
2022/09/01 05:07:38;;;;;;;19.43;15.80;;;;;;;;;;5010898;28;20440;-54
2022/09/01 05:10:05;;;;;;;20.00;15.67;;;;;;;;;;4990301;28;20955;-53
2022/09/01 05:12:31;;;;;;;15.67;14.00;;;;;;;;;;5016031;28;20561;-54
2022/09/01 05:14:57;;;;;;;17.10;14.60;;;;;;;;;;5003589;28;20913;-54
2022/09/01 05:17:24;;;;;;;19.80;15.83;;;;;;;;;;5010931;28;20806;-54
2022/09/01 05:19:50;;;;;;;22.30;14.93;;;;;;;;;;4965926;28;24660;-54
2022/09/01 05:22:20;;;;;;;18.90;14.90;;;;;;;;;;5010530;28;20548;-53
2022/09/01 05:24:46;;;;;;;17.50;14.90;;;;;;;;;;5007862;28;20168;-53
2022/09/01 05:27:13;;;;;;;19.80;14.60;;;;;;;;;;5007272;28;20826;-55
2022/09/01 05:29:40;;;;;;;24.93;18.17;;;;;;;;;;4988953;28;20535;-54
2022/09/01 05:32:08;;;;;;;22.30;16.40;;;;;;;;;;5012622;28;20423;-54
2022/09/01 05:34:37;;;;;;;20.73;15.83;;;;;;;;;;5006206;28;20973;-54
2022/09/01 05:37:04;;;;;;;17.10;14.17;;;;;;;;;;5008735;28;20500;-54
2022/09/01 05:39:30;;;;;;;22.30;15.00;;;;;;;;;;4994071;28;20549;-55
2022/09/01 05:41:56;;;;;;;21.20;15.10;;;;;;;;;;5018703;28;20535;-54
2022/09/01 05:44:22;;;;;;;19.90;15.90;;;;;;;;;;5011949;28;20179;-54
2022/09/01 05:46:49;;;;;;;21.00;18.17;;;;;;;;;;5014779;28;20439;-53
2022/09/01 05:49:17;;;;;;;18.10;14.87;;;;;;;;;;4996209;28;21755;-54
2022/09/01 05:51:43;;;;;;;24.50;16.87;;;;;;;;;;4996690;28;20427;-54
2022/09/01 05:54:10;;;;;;;22.73;15.43;;;;;;;;;;5010172;28;20435;-53
2022/09/01 05:56:40;;;;;;;19.07;15.67;;;;;;;;;;5010321;28;20440;-54
2022/09/01 05:59:06;;;;;;;18.70;15.13;;;;;;;;;;5003502;28;20447;-54
2022/09/01 06:01:32;;;;;;;20.53;15.37;;;;;;;;;;5005780;28;20443;-54
2022/09/01 06:03:59;;;;;;;19.03;16.63;;;;;;;;;;5015860;28;20439;-54
2022/09/01 06:06:29;;;;;;;20.43;16.97;;;;;;;;;;5011666;28;20439;-53
2022/09/01 06:08:57;;;;;;;21.23;16.13;;;;;;;;;;5003731;28;20437;-54
2022/09/01 06:11:24;;;;;;;22.20;17.37;;;;;;;;;;5000864;28;21023;-54
2022/09/01 06:13:51;;;;;;;22.50;17.57;;;;;;;;;;5014296;28;20452;-53
2022/09/01 06:16:18;;;;;;;21.90;18.63;;;;;;;;;;5010227;28;20510;-53
2022/09/01 06:18:44;;;;;;;22.70;19.43;;;;;;;;;;5010080;28;20432;-54
2022/09/01 06:21:13;;;;;;;23.80;19.77;;;;;;;;;;4964179;28;20484;-53
2022/09/01 06:23:41;;;;;;;23.80;19.73;;;;;;;;;;5011379;28;20424;-54
2022/09/01 06:26:08;;;;;;;22.00;19.10;;;;;;;;;;5007121;28;20432;-55
2022/09/01 06:28:34;;;;;;;23.47;18.00;;;;;;;;;;5010739;28;20436;-55
2022/09/01 06:31:00;;;;;;;21.23;17.67;;;;;;;;;;5008511;28;20442;-55
2022/09/01 06:33:26;;;;;;;26.63;19.00;;;;;;;;;;5011223;28;20437;-54
2022/09/01 06:35:54;;;;;;;22.60;17.27;;;;;;;;;;5010357;28;20471;-53
2022/09/01 06:38:20;;;;;;;23.10;16.90;;;;;;;;;;5010511;28;20263;-53
2022/09/01 06:40:47;;;;;;;19.87;17.73;;;;;;;;;;4984930;28;20473;-54
2022/09/01 06:43:15;;;;;;;20.93;17.07;;;;;;;;;;5017568;28;20438;-55
2022/09/01 06:45:43;;;;;;;23.37;16.93;;;;;;;;;;5008179;28;20444;-55
2022/09/01 06:48:16;;;;;;;19.80;16.07;;;;;;;;;;5016123;28;20438;-55
2022/09/01 06:50:42;;;;;;;20.00;15.40;;;;;;;;;;4965185;28;20464;-55
2022/09/01 06:53:12;;;;;;;27.83;16.80;;;;;;;;;;5013267;28;20465;-55
2022/09/01 06:55:39;;;;;;;19.70;17.20;;;;;;;;;;5003206;28;20449;-54
2022/09/01 06:58:06;;;;;;;17.53;15.63;;;;;;;;;;5018121;28;20499;-54
2022/09/01 07:00:32;;;;;;;19.57;17.47;;;;;;;;;;5005765;28;20484;-54
2022/09/01 07:02:58;;;;;;;20.77;18.20;;;;;;;;;;5018023;28;20803;-54
2022/09/01 07:05:24;;;;;;;21.07;16.90;;;;;;;;;;5006908;28;20470;-53
2022/09/01 07:07:53;;;;;;;21.60;17.70;;;;;;;;;;5018917;28;20490;-53
2022/09/01 07:10:21;;;;;;;19.07;17.07;;;;;;;;;;4993874;28;20439;-53
2022/09/01 07:12:50;;;;;;;21.80;18.40;;;;;;;;;;5021318;28;20446;-55
2022/09/01 07:15:18;;;;;;;17.93;16.00;;;;;;;;;;5010273;28;20439;-53
2022/09/01 07:17:48;;;;;;;19.87;16.87;;;;;;;;;;5016022;28;20443;-54
2022/09/01 07:20:14;;;;;;;23.60;17.00;;;;;;;;;;5020067;28;20992;-54
2022/09/01 07:22:40;;;;;;;18.37;15.80;;;;;;;;;;5002890;28;20444;-55
2022/09/01 07:25:06;;;;;;;18.40;15.87;;;;;;;;;;4966738;28;20243;-54
2022/09/01 07:27:32;;;;;;;16.90;14.23;;;;;;;;;;5010514;28;20903;-53
2022/09/01 07:29:59;;;;;;;18.80;15.57;;;;;;;;;;4989746;28;20451;-55
2022/09/01 07:32:25;;;;;;;19.50;15.53;;;;;;;;;;5015378;28;20442;-53
2022/09/01 07:34:51;;;;;;;17.73;14.07;;;;;;;;;;5006910;28;20504;-53
2022/09/01 07:37:21;;;;;;;16.90;15.20;;;;;;;;;;5009552;28;20424;-53
2022/09/01 07:39:47;;;;;;;16.60;14.83;;;;;;;;;;5005125;28;20471;-53
2022/09/01 07:42:15;;;;;;;16.07;14.47;;;;;;;;;;5001442;28;20420;-53
2022/09/01 07:44:43;;;;;;;16.83;14.57;;;;;;;;;;5008280;28;20263;-55
2022/09/01 07:47:10;;;;;;;15.30;13.70;;;;;;;;;;5012705;28;20424;-52
2022/09/01 07:49:36;;;;;;;16.80;14.23;;;;;;;;;;4993952;28;20444;-54
2022/09/01 07:52:03;;;;;;;16.63;14.60;;;;;;;;;;5015135;28;20455;-54
2022/09/01 07:54:29;;;;;;;21.63;15.03;;;;;;;;;;4973719;28;20450;-54
2022/09/01 07:56:55;;;;;;;18.60;15.00;;;;;;;;;;5007020;28;20473;-54
2022/09/01 07:59:21;;;;;;;16.27;14.30;;;;;;;;;;4999969;28;20417;-53
2022/09/01 08:01:48;;;;;;;19.93;14.70;;;;;;;;;;5012238;28;20509;-54
2022/09/01 08:04:15;;;;;;;16.90;14.10;;;;;;;;;;5009265;28;20425;-54
2022/09/01 08:06:41;;;;;;;14.70;12.90;;;;;;;;;;4999320;28;20470;-53
2022/09/01 08:09:07;;;;;;;14.00;12.47;;;;;;;;;;5007936;28;20460;-54
2022/09/01 08:11:33;;;;;;;15.00;13.00;;;;;;;;;;5000470;28;20459;-54
2022/09/01 08:13:59;;;;;;;14.60;13.17;;;;;;;;;;5006817;28;20511;-54
2022/09/01 08:16:26;;;;;;;14.80;12.17;;;;;;;;;;5008421;28;20440;-54
2022/09/01 08:18:52;;;;;;;11.13;10.00;;;;;;;;;;5012008;28;20451;-54
2022/09/01 08:21:20;;;;;;;11.53;10.33;;;;;;;;;;5000536;28;21002;-53
2022/09/01 08:23:46;;;;;;;14.27;11.23;;;;;;;;;;5026692;28;20440;-55
2022/09/01 08:26:13;;;;;;;12.17;10.73;;;;;;;;;;5001892;28;21133;-53
2022/09/01 08:28:39;;;;;;;13.40;10.90;;;;;;;;;;5005612;28;20967;-55
2022/09/01 08:31:06;;;;;;;13.97;9.80;;;;;;;;;;4963338;28;20444;-54
2022/09/01 08:33:33;;;;;;;10.57;9.57;;;;;;;;;;5013135;28;20437;-54
2022/09/01 08:35:59;;;;;;;13.43;9.90;;;;;;;;;;5006352;28;20510;-54
2022/09/01 08:38:25;;;;;;;12.77;9.87;;;;;;;;;;5011897;28;20466;-53
2022/09/01 08:40:53;;;;;;;10.40;8.83;;;;;;;;;;5001697;28;20479;-52
2022/09/01 08:43:24;;;;;;;12.70;9.83;;;;;;;;;;5012436;28;20431;-53
2022/09/01 08:45:54;;;;;;;10.40;9.20;;;;;;;;;;4997369;28;20547;-55
2022/09/01 08:48:22;;;;;;;10.87;8.17;;;;;;;;;;5023378;28;20431;-55
2022/09/01 08:50:49;;;;;;;12.30;9.40;;;;;;;;;;5004155;28;20435;-55
2022/09/01 08:53:19;;;;;;;11.23;8.93;;;;;;;;;;5010226;28;20492;-55
2022/09/01 08:55:46;;;;;;;10.03;8.40;;;;;;;;;;5007035;28;20451;-54
2022/09/01 08:58:13;;;;;;;10.83;8.40;;;;;;;;;;5012600;28;20438;-55
2022/09/01 09:00:42;;;;;;;9.67;8.60;;;;;;;;;;5017175;28;20479;-54
2022/09/01 09:03:08;;;;;;;8.27;7.50;;;;;;;;;;5018078;28;20454;-55
2022/09/01 09:05:40;;;;;;;11.97;8.80;;;;;;;;;;4965610;28;20455;-55
2022/09/01 09:08:06;;;;;;;10.30;9.03;;;;;;;;;;5012473;28;20181;-55
2022/09/01 09:10:36;;;;;;;9.30;8.17;;;;;;;;;;5006198;28;20437;-53
2022/09/01 09:13:08;;;;;;;9.33;8.00;;;;;;;;;;5015058;28;20437;-52
2022/09/01 09:15:39;;;;;;;8.53;7.63;;;;;;;;;;5012190;28;20432;-53
2022/09/01 09:18:25;;;;;;;11.23;7.43;;;;;;;;;;5014699;28;20451;-57
2022/09/01 09:20:51;;;;;;;10.43;8.60;;;;;;;;;;5006965;28;20482;-54
2022/09/01 09:23:25;;;;;;;10.30;7.27;;;;;;;;;;5018649;28;20435;-54
2022/09/01 09:25:51;;;;;;;8.20;7.50;;;;;;;;;;5023992;28;20440;-54
2022/09/01 09:28:17;;;;;;;8.87;8.07;;;;;;;;;;5016246;28;20506;-54
2022/09/01 09:30:43;;;;;;;9.90;7.63;;;;;;;;;;4983312;28;20463;-54
2022/09/01 09:33:11;;;;;;;9.37;8.43;;;;;;;;;;5014314;28;20188;-54
2022/09/01 09:35:41;;;;;;;8.90;8.00;;;;;;;;;;4972769;28;20200;-55
2022/09/01 09:38:16;;;;;;;8.07;7.27;;;;;;;;;;5014418;28;20451;-55
2022/09/01 09:40:55;;;;;;;9.60;7.50;;;;;;;;;;5009013;28;20546;-55
2022/09/01 09:43:23;;;;;;;9.10;8.20;;;;;;;;;;5004844;28;20505;-53
2022/09/01 09:45:49;;;;;;;8.50;7.60;;;;;;;;;;5010090;28;20430;-54
2022/09/01 09:48:34;;;;;;;8.57;7.70;;;;;;;;;;5011631;28;20900;-54
2022/09/01 09:51:14;;;;;;;8.37;7.53;;;;;;;;;;4994194;28;20447;-54
2022/09/01 09:53:40;;;;;;;9.47;8.53;;;;;;;;;;5015949;28;20506;-55
2022/09/01 09:56:16;;;;;;;11.30;9.30;;;;;;;;;;5010472;28;20535;-56
2022/09/01 09:58:43;;;;;;;9.23;8.37;;;;;;;;;;5007830;28;20250;-54
2022/09/01 10:01:15;;;;;;;8.13;7.20;;;;;;;;;;4992011;28;20474;-54
2022/09/01 10:03:48;;;;;;;8.23;7.53;;;;;;;;;;5017464;28;20459;-54
2022/09/01 10:06:33;;;;;;;8.67;7.73;;;;;;;;;;5006908;28;20424;-54
2022/09/01 10:08:59;;;;;;;9.10;7.20;;;;;;;;;;5013812;28;20439;-54
2022/09/01 10:11:27;;;;;;;8.10;7.30;;;;;;;;;;4967587;28;20501;-54
2022/09/01 10:13:53;;;;;;;8.47;7.60;;;;;;;;;;5008325;28;20497;-53
2022/09/01 10:16:23;;;;;;;8.63;7.30;;;;;;;;;;5012395;28;20431;-55
2022/09/01 10:18:50;;;;;;;8.10;7.30;;;;;;;;;;5005541;28;20428;-54
2022/09/01 10:21:28;;;;;;;7.07;6.47;;;;;;;;;;4998270;28;20474;-55
2022/09/01 10:23:54;;;;;;;8.37;7.60;;;;;;;;;;5019434;28;20435;-55
2022/09/01 10:26:23;;;;;;;7.20;6.13;;;;;;;;;;5009599;28;20523;-54
2022/09/01 10:28:58;;;;;;;7.13;6.43;;;;;;;;;;5014864;28;20270;-55
2022/09/01 10:31:24;;;;;;;7.47;6.77;;;;;;;;;;4996054;28;20956;-55
2022/09/01 10:33:50;;;;;;;6.87;6.17;;;;;;;;;;5021938;28;20436;-53
2022/09/01 10:36:16;;;;;;;6.97;5.63;;;;;;;;;;5005189;28;20467;-53
2022/09/01 10:38:42;;;;;;;6.60;5.90;;;;;;;;;;5007091;28;20622;-54
2022/09/01 10:41:09;;;;;;;7.37;6.67;;;;;;;;;;4965162;28;20478;-55
2022/09/01 10:43:41;;;;;;;7.00;6.37;;;;;;;;;;5026749;28;20447;-54
2022/09/01 10:46:08;;;;;;;6.53;5.93;;;;;;;;;;5009355;28;20423;-55
2022/09/01 10:48:37;;;;;;;6.37;5.83;;;;;;;;;;5012037;28;20424;-54
2022/09/01 10:51:12;;;;;;;6.13;5.53;;;;;;;;;;5002038;28;20428;-54
2022/09/01 10:53:57;;;;;;;5.90;4.83;;;;;;;;;;5015702;28;20481;-56
2022/09/01 10:56:27;;;;;;;6.10;5.50;;;;;;;;;;5005697;28;20431;-54
2022/09/01 10:58:53;;;;;;;6.00;5.40;;;;;;;;;;5011923;28;20439;-55
2022/09/01 11:01:39;;;;;;;8.50;4.77;;;;;;;;;;4999024;28;20832;-55
2022/09/01 11:04:05;;;;;;;5.23;4.27;;;;;;;;;;5014129;28;20177;-54
2022/09/01 11:06:40;;;;;;;5.77;5.13;;;;;;;;;;5007244;28;20423;-55
2022/09/01 11:09:07;;;;;;;4.70;4.30;;;;;;;;;;5012946;28;20542;-55
2022/09/01 11:11:35;;;;;;;5.00;4.60;;;;;;;;;;5002454;28;20567;-57
2022/09/01 11:14:04;;;;;;;4.27;3.87;;;;;;;;;;4964832;28;20512;-54
2022/09/01 11:16:30;;;;;;;4.23;3.93;;;;;;;;;;5013163;28;20436;-54
2022/09/01 11:19:15;;;;;;;4.23;3.83;;;;;;;;;;5007546;28;20439;-55
2022/09/01 11:21:41;;;;;;;4.53;4.13;;;;;;;;;;4990329;28;20520;-54
2022/09/01 11:24:26;;;;;;;5.10;4.60;;;;;;;;;;5014048;28;20896;-54
2022/09/01 11:26:52;;;;;;;4.70;3.70;;;;;;;;;;5003068;28;20282;-55
2022/09/01 11:29:36;;;;;;;4.20;3.80;;;;;;;;;;5011259;28;20511;-54
2022/09/01 11:32:04;;;;;;;4.80;4.40;;;;;;;;;;4984761;28;20897;-55
2022/09/01 11:34:30;;;;;;;5.60;5.10;;;;;;;;;;5013420;28;20446;-55
2022/09/01 11:37:00;;;;;;;5.70;5.20;;;;;;;;;;4996547;28;20503;-54
2022/09/01 11:39:46;;;;;;;5.27;4.87;;;;;;;;;;5011926;28;21056;-55
2022/09/01 11:42:17;;;;;;;4.73;4.33;;;;;;;;;;4993448;28;20477;-53
2022/09/01 11:44:46;;;;;;;4.33;4.03;;;;;;;;;;5014521;28;20440;-54
2022/09/01 11:47:38;;;;;;;5.03;4.63;;;;;;;;;;4960539;28;20945;-55
2022/09/01 11:50:05;;;;;;;4.70;4.30;;;;;;;;;;5016203;28;20435;-55
2022/09/01 11:52:32;;;;;;;4.80;4.40;;;;;;;;;;5003966;28;21038;-54
2022/09/01 11:54:58;;;;;;;5.00;4.60;;;;;;;;;;5014967;28;20473;-55
2022/09/01 11:57:28;;;;;;;4.23;3.83;;;;;;;;;;4986687;28;20476;-56
2022/09/01 11:59:54;;;;;;;7.90;4.40;;;;;;;;;;5020015;28;20479;-55
2022/09/01 12:02:25;;;;;;;4.50;4.10;;;;;;;;;;4996900;28;20431;-54
2022/09/01 12:04:52;;;;;;;4.60;4.20;;;;;;;;;;5027063;28;20426;-54
2022/09/01 12:07:25;;;;;;;4.67;4.27;;;;;;;;;;4993546;28;20443;-54
2022/09/01 12:09:51;;;;;;;4.80;4.40;;;;;;;;;;5015077;28;20908;-54
2022/09/01 12:12:31;;;;;;;4.60;4.10;;;;;;;;;;4993729;28;20453;-55
2022/09/01 12:15:01;;;;;;;4.87;4.40;;;;;;;;;;5016777;28;20528;-53
2022/09/01 12:17:27;;;;;;;4.70;4.30;;;;;;;;;;4996482;28;20988;-53
2022/09/01 12:19:53;;;;;;;4.67;4.27;;;;;;;;;;5014221;28;20912;-54
2022/09/01 12:22:20;;;;;;;5.00;4.43;;;;;;;;;;4966512;28;20463;-55
2022/09/01 12:24:53;;;;;;;6.10;5.00;;;;;;;;;;5008753;28;20502;-55
2022/09/01 12:27:19;;;;;;;4.63;4.23;;;;;;;;;;5003834;28;20933;-54
2022/09/01 12:29:45;;;;;;;4.97;4.50;;;;;;;;;;5016836;28;20450;-55
2022/09/01 12:32:11;;;;;;;4.90;4.40;;;;;;;;;;4999531;28;20454;-55
2022/09/01 12:34:48;;;;;;;5.13;4.63;;;;;;;;;;5019102;28;20444;-54
2022/09/01 12:37:14;;;;;;;4.80;4.07;;;;;;;;;;4996086;28;20427;-56
2022/09/01 12:39:41;;;;;;;4.33;3.90;;;;;;;;;;5015943;28;20482;-55
2022/09/01 12:42:10;;;;;;;5.00;4.53;;;;;;;;;;4991503;28;20189;-54
2022/09/01 12:44:39;;;;;;;5.47;4.97;;;;;;;;;;5016698;28;20441;-54
2022/09/01 12:47:06;;;;;;;5.90;4.63;;;;;;;;;;5002651;28;20535;-53
2022/09/01 12:49:37;;;;;;;5.40;5.00;;;;;;;;;;5006181;28;20455;-54
2022/09/01 12:52:10;;;;;;;6.83;4.37;;;;;;;;;;5003812;28;20436;-54
2022/09/01 12:54:36;;;;;;;5.00;4.37;;;;;;;;;;5026250;28;20951;-54
2022/09/01 12:57:01;;;;;;;4.77;4.37;;;;;;;;;;4964283;28;20506;-54
2022/09/01 12:59:27;;;;;;;6.30;4.97;;;;;;;;;;5004602;28;20197;-57
2022/09/01 13:01:53;;;;;;;4.93;4.43;;;;;;;;;;5001621;28;20193;-55
2022/09/01 13:04:24;;;;;;;4.87;4.30;;;;;;;;;;5014488;28;20439;-55
2022/09/01 13:06:50;;;;;;;5.30;4.50;;;;;;;;;;5004623;28;20521;-55
2022/09/01 13:09:16;;;;;;;4.90;4.50;;;;;;;;;;5010386;28;21066;-55
2022/09/01 13:11:43;;;;;;;4.83;4.33;;;;;;;;;;4990913;28;20436;-55
2022/09/01 13:14:09;;;;;;;4.63;4.23;;;;;;;;;;5016093;28;20446;-55
2022/09/01 13:16:36;;;;;;;5.00;4.60;;;;;;;;;;5006785;28;20467;-56
2022/09/01 13:19:02;;;;;;;4.13;3.83;;;;;;;;;;5020483;28;20181;-56
2022/09/01 13:21:28;;;;;;;4.40;4.00;;;;;;;;;;5000609;28;21272;-56
2022/09/01 13:23:54;;;;;;;3.43;3.13;;;;;;;;;;5014096;28;20494;-56
2022/09/01 13:26:20;;;;;;;4.00;3.60;;;;;;;;;;4964300;28;20459;-55
2022/09/01 13:28:46;;;;;;;3.90;3.60;;;;;;;;;;5001571;28;20788;-55
2022/09/01 13:31:12;;;;;;;4.20;3.90;;;;;;;;;;5004855;28;20193;-55
2022/09/01 13:33:38;;;;;;;4.30;4.00;;;;;;;;;;4990479;28;20532;-55
2022/09/01 13:36:04;;;;;;;4.30;3.90;;;;;;;;;;5017767;28;20316;-55
2022/09/01 13:38:30;;;;;;;4.37;3.97;;;;;;;;;;5004452;28;20520;-55
2022/09/01 13:40:56;;;;;;;3.93;3.63;;;;;;;;;;5009563;28;20483;-55
2022/09/01 13:43:25;;;;;;;4.43;4.03;;;;;;;;;;4989412;28;20497;-56
2022/09/01 13:45:51;;;;;;;4.00;3.60;;;;;;;;;;5018847;28;20440;-56
2022/09/01 13:48:17;;;;;;;4.40;4.00;;;;;;;;;;5004056;28;20440;-55
2022/09/01 13:50:48;;;;;;;4.53;4.13;;;;;;;;;;5006990;28;21075;-55
2022/09/01 13:53:14;;;;;;;4.47;4.07;;;;;;;;;;4993542;28;20657;-56
2022/09/01 13:55:40;;;;;;;4.23;3.93;;;;;;;;;;5010032;28;20478;-55
2022/09/01 13:58:06;;;;;;;4.67;4.27;;;;;;;;;;4967406;28;20181;-55
2022/09/01 14:00:33;;;;;;;4.90;4.50;;;;;;;;;;5009765;28;20487;-53
2022/09/01 14:03:01;;;;;;;4.73;4.33;;;;;;;;;;5009045;28;20435;-55
2022/09/01 14:05:28;;;;;;;6.80;4.83;;;;;;;;;;5012935;28;20455;-54
2022/09/01 14:07:54;;;;;;;4.60;4.20;;;;;;;;;;5007978;28;20436;-54
2022/09/01 14:10:20;;;;;;;5.17;4.70;;;;;;;;;;5010520;28;20511;-54
2022/09/01 14:12:46;;;;;;;4.70;4.30;;;;;;;;;;4983529;28;20452;-53
2022/09/01 14:15:12;;;;;;;3.70;3.40;;;;;;;;;;5012654;28;20534;-53
2022/09/01 14:17:38;;;;;;;5.63;3.67;;;;;;;;;;5009454;28;20467;-54
2022/09/01 14:20:06;;;;;;;4.70;4.30;;;;;;;;;;5016108;28;20474;-54
2022/09/01 14:22:32;;;;;;;4.60;4.20;;;;;;;;;;5006642;28;20960;-54
2022/09/01 14:24:58;;;;;;;5.70;5.20;;;;;;;;;;5012545;28;20436;-55
2022/09/01 14:27:24;;;;;;;4.13;3.80;;;;;;;;;;5007027;28;20428;-56
2022/09/01 14:29:51;;;;;;;4.73;4.33;;;;;;;;;;5017215;28;20447;-55
2022/09/01 14:32:17;;;;;;;6.57;4.87;;;;;;;;;;4966038;28;20663;-55
2022/09/01 14:34:43;;;;;;;5.20;4.70;;;;;;;;;;5011245;28;20439;-56